sensor_id;sensor_type;location;lat;lon;timestamp;P1;durP1;ratioP1;P2;durP2;ratioP2
2850;SDS011;1433;49.976;8.342;2023-04-24T00:01:06;1.90;;;1.40;;
2850;SDS011;1433;49.976;8.342;2023-04-24T00:03:33;1.23;;;1.00;;
2850;SDS011;1433;49.976;8.342;2023-04-24T00:05:59;1.20;;;1.10;;
2850;SDS011;1433;49.976;8.342;2023-04-24T00:08:26;1.93;;;1.40;;
2850;SDS011;1433;49.976;8.342;2023-04-24T00:10:53;1.20;;;1.10;;
2850;SDS011;1433;49.976;8.342;2023-04-24T00:13:19;2.47;;;1.50;;
2850;SDS011;1433;49.976;8.342;2023-04-24T00:15:45;2.13;;;1.60;;
2850;SDS011;1433;49.976;8.342;2023-04-24T00:18:11;1.37;;;1.17;;
2850;SDS011;1433;49.976;8.342;2023-04-24T00:20:37;2.30;;;0.90;;
2850;SDS011;1433;49.976;8.342;2023-04-24T00:23:04;1.77;;;1.17;;
2850;SDS011;1433;49.976;8.342;2023-04-24T00:25:30;2.93;;;1.17;;
2850;SDS011;1433;49.976;8.342;2023-04-24T00:27:56;1.10;;;1.00;;
2850;SDS011;1433;49.976;8.342;2023-04-24T00:30:22;1.20;;;1.10;;
2850;SDS011;1433;49.976;8.342;2023-04-24T00:32:48;1.20;;;1.10;;
2850;SDS011;1433;49.976;8.342;2023-04-24T00:35:15;1.90;;;1.17;;
2850;SDS011;1433;49.976;8.342;2023-04-24T00:37:42;1.47;;;1.20;;
2850;SDS011;1433;49.976;8.342;2023-04-24T00:40:08;1.20;;;1.10;;
2850;SDS011;1433;49.976;8.342;2023-04-24T00:42:35;1.20;;;0.97;;
2850;SDS011;1433;49.976;8.342;2023-04-24T00:45:04;1.40;;;1.27;;
2850;SDS011;1433;49.976;8.342;2023-04-24T00:47:32;1.40;;;1.10;;
2850;SDS011;1433;49.976;8.342;2023-04-24T00:50:03;1.67;;;0.97;;
2850;SDS011;1433;49.976;8.342;2023-04-24T00:52:30;1.27;;;1.17;;
2850;SDS011;1433;49.976;8.342;2023-04-24T00:54:58;1.00;;;0.90;;
2850;SDS011;1433;49.976;8.342;2023-04-24T00:57:24;1.13;;;0.93;;
2850;SDS011;1433;49.976;8.342;2023-04-24T00:59:51;1.43;;;1.00;;
2850;SDS011;1433;49.976;8.342;2023-04-24T01:02:19;2.07;;;1.10;;
2850;SDS011;1433;49.976;8.342;2023-04-24T01:04:49;2.20;;;1.10;;
2850;SDS011;1433;49.976;8.342;2023-04-24T01:07:18;1.10;;;1.00;;
2850;SDS011;1433;49.976;8.342;2023-04-24T01:09:48;1.20;;;1.10;;
2850;SDS011;1433;49.976;8.342;2023-04-24T01:12:18;1.30;;;1.10;;
2850;SDS011;1433;49.976;8.342;2023-04-24T01:14:45;1.50;;;1.30;;
2850;SDS011;1433;49.976;8.342;2023-04-24T01:17:11;1.63;;;1.33;;
2850;SDS011;1433;49.976;8.342;2023-04-24T01:19:38;1.97;;;1.20;;
2850;SDS011;1433;49.976;8.342;2023-04-24T01:22:12;1.30;;;1.20;;
2850;SDS011;1433;49.976;8.342;2023-04-24T01:24:39;1.70;;;1.60;;
2850;SDS011;1433;49.976;8.342;2023-04-24T01:27:05;1.50;;;1.40;;
2850;SDS011;1433;49.976;8.342;2023-04-24T01:29:32;1.57;;;1.40;;
2850;SDS011;1433;49.976;8.342;2023-04-24T01:31:58;1.70;;;1.10;;
2850;SDS011;1433;49.976;8.342;2023-04-24T01:34:25;2.80;;;1.30;;
2850;SDS011;1433;49.976;8.342;2023-04-24T01:36:52;4.03;;;1.40;;
2850;SDS011;1433;49.976;8.342;2023-04-24T01:39:19;1.70;;;1.37;;
2850;SDS011;1433;49.976;8.342;2023-04-24T01:41:46;1.73;;;1.53;;
2850;SDS011;1433;49.976;8.342;2023-04-24T01:44:12;1.17;;;1.07;;
2850;SDS011;1433;49.976;8.342;2023-04-24T01:46:38;1.30;;;1.20;;
2850;SDS011;1433;49.976;8.342;2023-04-24T01:49:05;2.33;;;1.30;;
2850;SDS011;1433;49.976;8.342;2023-04-24T01:51:31;1.50;;;1.27;;
2850;SDS011;1433;49.976;8.342;2023-04-24T01:53:57;2.90;;;1.43;;
2850;SDS011;1433;49.976;8.342;2023-04-24T01:56:23;1.60;;;1.50;;
2850;SDS011;1433;49.976;8.342;2023-04-24T01:58:51;1.50;;;1.17;;
2850;SDS011;1433;49.976;8.342;2023-04-24T02:01:19;1.40;;;1.30;;
2850;SDS011;1433;49.976;8.342;2023-04-24T02:03:47;2.70;;;1.20;;
2850;SDS011;1433;49.976;8.342;2023-04-24T02:06:13;1.20;;;0.90;;
2850;SDS011;1433;49.976;8.342;2023-04-24T02:08:39;1.90;;;1.27;;
2850;SDS011;1433;49.976;8.342;2023-04-24T02:11:06;1.90;;;1.20;;
2850;SDS011;1433;49.976;8.342;2023-04-24T02:13:32;1.80;;;1.60;;
2850;SDS011;1433;49.976;8.342;2023-04-24T02:16:00;1.20;;;1.10;;
2850;SDS011;1433;49.976;8.342;2023-04-24T02:18:26;1.10;;;1.00;;
2850;SDS011;1433;49.976;8.342;2023-04-24T02:20:52;1.80;;;1.20;;
2850;SDS011;1433;49.976;8.342;2023-04-24T02:23:20;1.70;;;1.20;;
2850;SDS011;1433;49.976;8.342;2023-04-24T02:25:46;2.27;;;1.17;;
2850;SDS011;1433;49.976;8.342;2023-04-24T02:28:13;6.30;;;1.60;;
2850;SDS011;1433;49.976;8.342;2023-04-24T02:30:39;2.27;;;1.60;;
2850;SDS011;1433;49.976;8.342;2023-04-24T02:33:05;2.30;;;1.50;;
2850;SDS011;1433;49.976;8.342;2023-04-24T02:35:32;1.70;;;1.50;;
2850;SDS011;1433;49.976;8.342;2023-04-24T02:37:58;3.10;;;1.10;;
2850;SDS011;1433;49.976;8.342;2023-04-24T02:40:24;1.30;;;1.20;;
2850;SDS011;1433;49.976;8.342;2023-04-24T02:42:50;1.40;;;1.10;;
2850;SDS011;1433;49.976;8.342;2023-04-24T02:45:17;1.83;;;1.17;;
2850;SDS011;1433;49.976;8.342;2023-04-24T02:47:43;1.40;;;1.00;;
2850;SDS011;1433;49.976;8.342;2023-04-24T02:50:09;1.20;;;1.10;;
2850;SDS011;1433;49.976;8.342;2023-04-24T02:52:36;1.30;;;1.13;;
2850;SDS011;1433;49.976;8.342;2023-04-24T02:55:04;1.30;;;1.20;;
2850;SDS011;1433;49.976;8.342;2023-04-24T02:57:31;5.33;;;1.30;;
2850;SDS011;1433;49.976;8.342;2023-04-24T02:59:57;1.20;;;1.00;;
2850;SDS011;1433;49.976;8.342;2023-04-24T03:02:23;1.60;;;1.47;;
2850;SDS011;1433;49.976;8.342;2023-04-24T03:04:49;1.70;;;0.87;;
2850;SDS011;1433;49.976;8.342;2023-04-24T03:07:16;1.20;;;1.00;;
2850;SDS011;1433;49.976;8.342;2023-04-24T03:09:42;2.33;;;1.13;;
2850;SDS011;1433;49.976;8.342;2023-04-24T03:12:09;3.70;;;1.10;;
2850;SDS011;1433;49.976;8.342;2023-04-24T03:14:35;1.30;;;1.00;;
2850;SDS011;1433;49.976;8.342;2023-04-24T03:17:01;1.20;;;1.00;;
2850;SDS011;1433;49.976;8.342;2023-04-24T03:19:27;1.50;;;1.40;;
2850;SDS011;1433;49.976;8.342;2023-04-24T03:21:55;1.40;;;1.20;;
2850;SDS011;1433;49.976;8.342;2023-04-24T03:24:22;1.03;;;0.93;;
2850;SDS011;1433;49.976;8.342;2023-04-24T03:26:56;1.07;;;0.83;;
2850;SDS011;1433;49.976;8.342;2023-04-24T03:29:41;1.40;;;1.00;;
2850;SDS011;1433;49.976;8.342;2023-04-24T03:32:08;1.30;;;1.00;;
2850;SDS011;1433;49.976;8.342;2023-04-24T03:34:35;2.00;;;1.33;;
2850;SDS011;1433;49.976;8.342;2023-04-24T03:37:02;1.47;;;1.23;;
2850;SDS011;1433;49.976;8.342;2023-04-24T03:39:30;1.20;;;1.10;;
2850;SDS011;1433;49.976;8.342;2023-04-24T03:41:56;1.40;;;1.30;;
2850;SDS011;1433;49.976;8.342;2023-04-24T03:44:24;1.23;;;1.10;;
2850;SDS011;1433;49.976;8.342;2023-04-24T03:46:50;1.30;;;1.00;;
2850;SDS011;1433;49.976;8.342;2023-04-24T03:49:18;1.20;;;1.10;;
2850;SDS011;1433;49.976;8.342;2023-04-24T03:51:46;2.03;;;1.47;;
2850;SDS011;1433;49.976;8.342;2023-04-24T03:54:17;3.10;;;1.20;;
2850;SDS011;1433;49.976;8.342;2023-04-24T03:56:44;1.40;;;1.30;;
2850;SDS011;1433;49.976;8.342;2023-04-24T03:59:10;1.30;;;1.20;;
2850;SDS011;1433;49.976;8.342;2023-04-24T04:01:38;2.17;;;1.00;;
2850;SDS011;1433;49.976;8.342;2023-04-24T04:04:07;1.30;;;1.10;;
2850;SDS011;1433;49.976;8.342;2023-04-24T04:06:35;1.30;;;1.20;;
2850;SDS011;1433;49.976;8.342;2023-04-24T04:09:02;1.40;;;1.20;;
2850;SDS011;1433;49.976;8.342;2023-04-24T04:11:29;1.47;;;1.30;;
2850;SDS011;1433;49.976;8.342;2023-04-24T04:13:56;1.63;;;1.40;;
2850;SDS011;1433;49.976;8.342;2023-04-24T04:16:22;4.93;;;1.53;;
2850;SDS011;1433;49.976;8.342;2023-04-24T04:18:50;1.27;;;1.17;;
2850;SDS011;1433;49.976;8.342;2023-04-24T04:21:17;2.23;;;2.03;;
2850;SDS011;1433;49.976;8.342;2023-04-24T04:23:43;1.40;;;1.30;;
2850;SDS011;1433;49.976;8.342;2023-04-24T04:26:14;1.80;;;1.53;;
2850;SDS011;1433;49.976;8.342;2023-04-24T04:28:45;1.43;;;1.30;;
2850;SDS011;1433;49.976;8.342;2023-04-24T04:31:11;2.23;;;1.57;;
2850;SDS011;1433;49.976;8.342;2023-04-24T04:33:38;2.00;;;1.90;;
2850;SDS011;1433;49.976;8.342;2023-04-24T04:36:06;1.90;;;1.50;;
2850;SDS011;1433;49.976;8.342;2023-04-24T04:38:35;1.53;;;1.43;;
2850;SDS011;1433;49.976;8.342;2023-04-24T04:41:10;1.67;;;1.57;;
2850;SDS011;1433;49.976;8.342;2023-04-24T04:43:37;2.07;;;1.63;;
2850;SDS011;1433;49.976;8.342;2023-04-24T04:46:05;2.80;;;2.17;;
2850;SDS011;1433;49.976;8.342;2023-04-24T04:48:51;1.57;;;1.47;;
2850;SDS011;1433;49.976;8.342;2023-04-24T04:51:18;2.63;;;1.83;;
2850;SDS011;1433;49.976;8.342;2023-04-24T04:53:45;3.10;;;1.90;;
2850;SDS011;1433;49.976;8.342;2023-04-24T04:56:11;1.73;;;1.63;;
2850;SDS011;1433;49.976;8.342;2023-04-24T04:58:42;1.80;;;1.70;;
2850;SDS011;1433;49.976;8.342;2023-04-24T05:01:10;2.40;;;1.87;;
2850;SDS011;1433;49.976;8.342;2023-04-24T05:03:38;2.60;;;2.40;;
2850;SDS011;1433;49.976;8.342;2023-04-24T05:06:07;2.43;;;1.93;;
2850;SDS011;1433;49.976;8.342;2023-04-24T05:08:35;1.77;;;1.67;;
2850;SDS011;1433;49.976;8.342;2023-04-24T05:11:01;2.37;;;2.17;;
2850;SDS011;1433;49.976;8.342;2023-04-24T05:13:28;2.87;;;2.30;;
2850;SDS011;1433;49.976;8.342;2023-04-24T05:15:55;2.83;;;2.43;;
2850;SDS011;1433;49.976;8.342;2023-04-24T05:18:22;2.50;;;2.30;;
2850;SDS011;1433;49.976;8.342;2023-04-24T05:20:49;2.45;;;2.10;;
2850;SDS011;1433;49.976;8.342;2023-04-24T05:23:15;2.20;;;1.93;;
2850;SDS011;1433;49.976;8.342;2023-04-24T05:25:42;2.67;;;2.30;;
2850;SDS011;1433;49.976;8.342;2023-04-24T05:28:11;2.40;;;2.20;;
2850;SDS011;1433;49.976;8.342;2023-04-24T05:30:37;2.13;;;2.03;;
2850;SDS011;1433;49.976;8.342;2023-04-24T05:33:03;2.60;;;2.00;;
2850;SDS011;1433;49.976;8.342;2023-04-24T05:35:32;2.47;;;2.27;;
2850;SDS011;1433;49.976;8.342;2023-04-24T05:37:58;3.50;;;2.13;;
2850;SDS011;1433;49.976;8.342;2023-04-24T05:40:24;2.47;;;2.27;;
2850;SDS011;1433;49.976;8.342;2023-04-24T05:42:50;2.20;;;2.00;;
2850;SDS011;1433;49.976;8.342;2023-04-24T05:45:16;2.10;;;1.90;;
2850;SDS011;1433;49.976;8.342;2023-04-24T05:47:43;2.60;;;1.77;;
2850;SDS011;1433;49.976;8.342;2023-04-24T05:50:10;2.40;;;2.20;;
2850;SDS011;1433;49.976;8.342;2023-04-24T05:52:37;2.80;;;2.40;;
2850;SDS011;1433;49.976;8.342;2023-04-24T05:55:05;2.77;;;2.57;;
2850;SDS011;1433;49.976;8.342;2023-04-24T05:57:34;2.53;;;2.33;;
2850;SDS011;1433;49.976;8.342;2023-04-24T06:00:03;3.60;;;2.50;;
2850;SDS011;1433;49.976;8.342;2023-04-24T06:02:33;2.00;;;1.87;;
2850;SDS011;1433;49.976;8.342;2023-04-24T06:05:00;4.13;;;2.87;;
2850;SDS011;1433;49.976;8.342;2023-04-24T06:07:26;3.30;;;2.47;;
2850;SDS011;1433;49.976;8.342;2023-04-24T06:09:53;2.80;;;2.00;;
2850;SDS011;1433;49.976;8.342;2023-04-24T06:12:21;2.67;;;2.47;;
2850;SDS011;1433;49.976;8.342;2023-04-24T06:14:58;2.63;;;1.93;;
2850;SDS011;1433;49.976;8.342;2023-04-24T06:17:29;3.20;;;2.90;;
2850;SDS011;1433;49.976;8.342;2023-04-24T06:19:56;2.60;;;2.40;;
2850;SDS011;1433;49.976;8.342;2023-04-24T06:22:23;3.77;;;2.63;;
2850;SDS011;1433;49.976;8.342;2023-04-24T06:24:50;3.57;;;2.70;;
2850;SDS011;1433;49.976;8.342;2023-04-24T06:27:17;3.50;;;2.43;;
2850;SDS011;1433;49.976;8.342;2023-04-24T06:29:43;5.87;;;2.50;;
2850;SDS011;1433;49.976;8.342;2023-04-24T06:32:10;3.13;;;2.30;;
2850;SDS011;1433;49.976;8.342;2023-04-24T06:34:37;3.50;;;3.20;;
2850;SDS011;1433;49.976;8.342;2023-04-24T06:37:03;3.90;;;3.27;;
2850;SDS011;1433;49.976;8.342;2023-04-24T06:39:29;3.73;;;3.43;;
2850;SDS011;1433;49.976;8.342;2023-04-24T06:41:56;2.70;;;2.50;;
2850;SDS011;1433;49.976;8.342;2023-04-24T06:44:23;3.97;;;2.53;;
2850;SDS011;1433;49.976;8.342;2023-04-24T06:46:49;3.63;;;3.33;;
2850;SDS011;1433;49.976;8.342;2023-04-24T06:49:15;3.43;;;3.13;;
2850;SDS011;1433;49.976;8.342;2023-04-24T06:51:42;4.63;;;3.60;;
2850;SDS011;1433;49.976;8.342;2023-04-24T06:54:08;3.90;;;2.90;;
2850;SDS011;1433;49.976;8.342;2023-04-24T06:56:34;3.70;;;3.30;;
2850;SDS011;1433;49.976;8.342;2023-04-24T06:59:01;3.33;;;3.03;;
2850;SDS011;1433;49.976;8.342;2023-04-24T07:01:27;2.50;;;2.30;;
2850;SDS011;1433;49.976;8.342;2023-04-24T07:03:53;3.30;;;2.60;;
2850;SDS011;1433;49.976;8.342;2023-04-24T07:06:19;2.53;;;2.33;;
2850;SDS011;1433;49.976;8.342;2023-04-24T07:08:48;2.80;;;2.60;;
2850;SDS011;1433;49.976;8.342;2023-04-24T07:11:14;3.10;;;2.80;;
2850;SDS011;1433;49.976;8.342;2023-04-24T07:13:40;3.50;;;2.80;;
2850;SDS011;1433;49.976;8.342;2023-04-24T07:16:07;3.37;;;3.07;;
2850;SDS011;1433;49.976;8.342;2023-04-24T07:18:34;2.60;;;2.40;;
2850;SDS011;1433;49.976;8.342;2023-04-24T07:21:02;3.33;;;3.03;;
2850;SDS011;1433;49.976;8.342;2023-04-24T07:23:28;2.27;;;2.07;;
2850;SDS011;1433;49.976;8.342;2023-04-24T07:25:54;2.73;;;2.53;;
2850;SDS011;1433;49.976;8.342;2023-04-24T07:28:21;3.03;;;2.80;;
2850;SDS011;1433;49.976;8.342;2023-04-24T07:30:47;2.97;;;2.77;;
2850;SDS011;1433;49.976;8.342;2023-04-24T07:33:13;4.17;;;3.43;;
2850;SDS011;1433;49.976;8.342;2023-04-24T07:35:39;3.33;;;3.03;;
2850;SDS011;1433;49.976;8.342;2023-04-24T07:38:05;2.40;;;2.20;;
2850;SDS011;1433;49.976;8.342;2023-04-24T07:40:31;2.57;;;2.10;;
2850;SDS011;1433;49.976;8.342;2023-04-24T07:42:58;2.60;;;2.17;;
2850;SDS011;1433;49.976;8.342;2023-04-24T07:45:25;3.00;;;2.60;;
2850;SDS011;1433;49.976;8.342;2023-04-24T07:47:53;2.30;;;2.10;;
2850;SDS011;1433;49.976;8.342;2023-04-24T07:50:19;2.70;;;2.50;;
2850;SDS011;1433;49.976;8.342;2023-04-24T07:52:46;3.03;;;2.20;;
2850;SDS011;1433;49.976;8.342;2023-04-24T07:55:12;4.60;;;2.80;;
2850;SDS011;1433;49.976;8.342;2023-04-24T07:57:39;2.63;;;2.40;;
2850;SDS011;1433;49.976;8.342;2023-04-24T08:00:06;3.90;;;3.03;;
2850;SDS011;1433;49.976;8.342;2023-04-24T08:02:39;2.27;;;2.13;;
2850;SDS011;1433;49.976;8.342;2023-04-24T08:05:05;2.10;;;1.93;;
2850;SDS011;1433;49.976;8.342;2023-04-24T08:07:32;2.20;;;1.97;;
2850;SDS011;1433;49.976;8.342;2023-04-24T08:09:59;2.43;;;2.23;;
2850;SDS011;1433;49.976;8.342;2023-04-24T08:12:25;2.57;;;2.37;;
2850;SDS011;1433;49.976;8.342;2023-04-24T08:14:51;2.53;;;2.17;;
2850;SDS011;1433;49.976;8.342;2023-04-24T08:17:17;2.70;;;2.30;;
2850;SDS011;1433;49.976;8.342;2023-04-24T08:19:43;3.40;;;3.10;;
2850;SDS011;1433;49.976;8.342;2023-04-24T08:22:11;3.30;;;2.47;;
2850;SDS011;1433;49.976;8.342;2023-04-24T08:24:38;2.30;;;2.07;;
2850;SDS011;1433;49.976;8.342;2023-04-24T08:27:04;2.03;;;1.93;;
2850;SDS011;1433;49.976;8.342;2023-04-24T08:29:30;3.13;;;2.83;;
2850;SDS011;1433;49.976;8.342;2023-04-24T08:31:56;2.37;;;2.17;;
2850;SDS011;1433;49.976;8.342;2023-04-24T08:34:23;2.23;;;2.03;;
2850;SDS011;1433;49.976;8.342;2023-04-24T08:36:49;2.50;;;1.87;;
2850;SDS011;1433;49.976;8.342;2023-04-24T08:39:15;1.77;;;1.40;;
2850;SDS011;1433;49.976;8.342;2023-04-24T08:41:43;2.23;;;2.10;;
2850;SDS011;1433;49.976;8.342;2023-04-24T08:44:11;2.00;;;1.90;;
2850;SDS011;1433;49.976;8.342;2023-04-24T08:46:47;1.70;;;1.60;;
2850;SDS011;1433;49.976;8.342;2023-04-24T08:49:14;4.40;;;4.00;;
2850;SDS011;1433;49.976;8.342;2023-04-24T08:51:42;2.33;;;2.07;;
2850;SDS011;1433;49.976;8.342;2023-04-24T08:54:08;4.67;;;2.17;;
2850;SDS011;1433;49.976;8.342;2023-04-24T08:56:34;2.40;;;2.20;;
2850;SDS011;1433;49.976;8.342;2023-04-24T08:59:05;2.37;;;2.17;;
2850;SDS011;1433;49.976;8.342;2023-04-24T09:01:32;3.13;;;2.00;;
2850;SDS011;1433;49.976;8.342;2023-04-24T09:04:00;2.30;;;2.10;;
2850;SDS011;1433;49.976;8.342;2023-04-24T09:06:29;2.70;;;2.47;;
2850;SDS011;1433;49.976;8.342;2023-04-24T09:08:59;2.03;;;1.90;;
2850;SDS011;1433;49.976;8.342;2023-04-24T09:11:27;3.30;;;2.17;;
2850;SDS011;1433;49.976;8.342;2023-04-24T09:13:53;4.00;;;2.37;;
2850;SDS011;1433;49.976;8.342;2023-04-24T09:16:21;2.73;;;1.80;;
2850;SDS011;1433;49.976;8.342;2023-04-24T09:18:48;1.60;;;1.50;;
2850;SDS011;1433;49.976;8.342;2023-04-24T09:21:15;3.23;;;2.20;;
2850;SDS011;1433;49.976;8.342;2023-04-24T09:23:41;1.90;;;1.60;;
2850;SDS011;1433;49.976;8.342;2023-04-24T09:26:08;1.93;;;1.57;;
2850;SDS011;1433;49.976;8.342;2023-04-24T09:28:36;1.63;;;1.47;;
2850;SDS011;1433;49.976;8.342;2023-04-24T09:31:07;2.60;;;1.50;;
2850;SDS011;1433;49.976;8.342;2023-04-24T09:33:36;2.63;;;2.07;;
2850;SDS011;1433;49.976;8.342;2023-04-24T09:36:03;1.90;;;1.80;;
2850;SDS011;1433;49.976;8.342;2023-04-24T09:38:30;1.80;;;1.70;;
2850;SDS011;1433;49.976;8.342;2023-04-24T09:41:02;1.90;;;1.80;;
2850;SDS011;1433;49.976;8.342;2023-04-24T09:43:29;2.93;;;1.93;;
2850;SDS011;1433;49.976;8.342;2023-04-24T09:45:56;1.73;;;1.63;;
2850;SDS011;1433;49.976;8.342;2023-04-24T09:48:31;1.80;;;1.70;;
2850;SDS011;1433;49.976;8.342;2023-04-24T09:51:00;1.60;;;1.50;;
2850;SDS011;1433;49.976;8.342;2023-04-24T09:53:27;2.10;;;1.90;;
2850;SDS011;1433;49.976;8.342;2023-04-24T09:55:55;1.73;;;1.63;;
2850;SDS011;1433;49.976;8.342;2023-04-24T09:58:24;1.83;;;1.70;;
2850;SDS011;1433;49.976;8.342;2023-04-24T10:00:54;1.87;;;1.77;;
2850;SDS011;1433;49.976;8.342;2023-04-24T10:03:25;1.73;;;1.63;;
2850;SDS011;1433;49.976;8.342;2023-04-24T10:05:53;2.13;;;1.70;;
2850;SDS011;1433;49.976;8.342;2023-04-24T10:08:20;2.90;;;2.63;;
2850;SDS011;1433;49.976;8.342;2023-04-24T10:10:46;7.80;;;1.80;;
2850;SDS011;1433;49.976;8.342;2023-04-24T10:13:13;1.70;;;1.60;;
2850;SDS011;1433;49.976;8.342;2023-04-24T10:15:41;1.93;;;1.83;;
2850;SDS011;1433;49.976;8.342;2023-04-24T10:18:08;1.73;;;1.47;;
2850;SDS011;1433;49.976;8.342;2023-04-24T10:20:36;1.70;;;1.60;;
2850;SDS011;1433;49.976;8.342;2023-04-24T10:23:04;2.10;;;1.83;;
2850;SDS011;1433;49.976;8.342;2023-04-24T10:25:32;1.90;;;1.70;;
2850;SDS011;1433;49.976;8.342;2023-04-24T10:28:00;2.43;;;2.23;;
2850;SDS011;1433;49.976;8.342;2023-04-24T10:30:28;2.10;;;1.90;;
2850;SDS011;1433;49.976;8.342;2023-04-24T10:32:56;3.00;;;1.90;;
2850;SDS011;1433;49.976;8.342;2023-04-24T10:35:22;1.73;;;1.63;;
2850;SDS011;1433;49.976;8.342;2023-04-24T10:38:07;1.60;;;1.50;;
2850;SDS011;1433;49.976;8.342;2023-04-24T10:40:35;2.60;;;2.00;;
2850;SDS011;1433;49.976;8.342;2023-04-24T10:43:06;2.50;;;2.27;;
2850;SDS011;1433;49.976;8.342;2023-04-24T10:45:35;1.73;;;1.47;;
2850;SDS011;1433;49.976;8.342;2023-04-24T10:48:05;1.70;;;1.60;;
2850;SDS011;1433;49.976;8.342;2023-04-24T10:50:47;1.83;;;1.73;;
2850;SDS011;1433;49.976;8.342;2023-04-24T10:53:19;1.67;;;1.57;;
2850;SDS011;1433;49.976;8.342;2023-04-24T10:55:49;1.20;;;1.10;;
2850;SDS011;1433;49.976;8.342;2023-04-24T10:58:23;1.53;;;1.43;;
2850;SDS011;1433;49.976;8.342;2023-04-24T11:00:59;2.60;;;1.57;;
2850;SDS011;1433;49.976;8.342;2023-04-24T11:03:26;1.43;;;1.33;;
2850;SDS011;1433;49.976;8.342;2023-04-24T11:08:39;1.40;;;1.00;;
2850;SDS011;1433;49.976;8.342;2023-04-24T11:11:12;1.47;;;1.30;;
2850;SDS011;1433;49.976;8.342;2023-04-24T11:16:27;1.33;;;1.00;;
2850;SDS011;1433;49.976;8.342;2023-04-24T11:19:02;2.60;;;1.10;;
2850;SDS011;1433;49.976;8.342;2023-04-24T11:21:40;1.30;;;1.17;;
2850;SDS011;1433;49.976;8.342;2023-04-24T11:24:23;1.00;;;0.80;;
2850;SDS011;1433;49.976;8.342;2023-04-24T11:26:51;1.23;;;1.07;;
2850;SDS011;1433;49.976;8.342;2023-04-24T11:32:19;1.00;;;0.90;;
2850;SDS011;1433;49.976;8.342;2023-04-24T11:35:20;1.20;;;1.10;;
2850;SDS011;1433;49.976;8.342;2023-04-24T11:37:50;1.13;;;1.03;;
2850;SDS011;1433;49.976;8.342;2023-04-24T11:40:19;1.20;;;1.10;;
2850;SDS011;1433;49.976;8.342;2023-04-24T11:42:47;1.67;;;1.00;;
2850;SDS011;1433;49.976;8.342;2023-04-24T11:45:18;1.10;;;1.00;;
2850;SDS011;1433;49.976;8.342;2023-04-24T11:47:43;1.30;;;1.10;;
2850;SDS011;1433;49.976;8.342;2023-04-24T11:50:13;1.40;;;1.10;;
2850;SDS011;1433;49.976;8.342;2023-04-24T11:52:42;1.50;;;1.20;;
2850;SDS011;1433;49.976;8.342;2023-04-24T11:57:46;1.30;;;1.20;;
2850;SDS011;1433;49.976;8.342;2023-04-24T12:00:26;1.73;;;1.60;;
2850;SDS011;1433;49.976;8.342;2023-04-24T12:03:09;3.33;;;1.80;;
2850;SDS011;1433;49.976;8.342;2023-04-24T12:05:38;2.60;;;1.93;;
2850;SDS011;1433;49.976;8.342;2023-04-24T12:08:06;2.50;;;2.20;;
2850;SDS011;1433;49.976;8.342;2023-04-24T12:10:39;1.67;;;1.47;;
2850;SDS011;1433;49.976;8.342;2023-04-24T12:13:05;2.07;;;1.87;;
2850;SDS011;1433;49.976;8.342;2023-04-24T12:15:35;1.77;;;1.40;;
2850;SDS011;1433;49.976;8.342;2023-04-24T12:18:04;1.50;;;1.40;;
2850;SDS011;1433;49.976;8.342;2023-04-24T12:20:31;1.60;;;1.50;;
2850;SDS011;1433;49.976;8.342;2023-04-24T12:22:59;1.97;;;1.73;;
2850;SDS011;1433;49.976;8.342;2023-04-24T12:25:27;1.80;;;1.70;;
2850;SDS011;1433;49.976;8.342;2023-04-24T12:30:40;2.17;;;1.97;;
2850;SDS011;1433;49.976;8.342;2023-04-24T12:33:10;8.43;;;2.50;;
2850;SDS011;1433;49.976;8.342;2023-04-24T12:35:36;2.30;;;2.10;;
2850;SDS011;1433;49.976;8.342;2023-04-24T12:38:06;2.17;;;2.07;;
2850;SDS011;1433;49.976;8.342;2023-04-24T12:40:34;2.50;;;2.30;;
2850;SDS011;1433;49.976;8.342;2023-04-24T12:43:00;1.97;;;1.80;;
2850;SDS011;1433;49.976;8.342;2023-04-24T12:45:26;2.17;;;2.03;;
2850;SDS011;1433;49.976;8.342;2023-04-24T12:48:01;2.93;;;2.67;;
2850;SDS011;1433;49.976;8.342;2023-04-24T12:50:27;4.20;;;2.73;;
2850;SDS011;1433;49.976;8.342;2023-04-24T12:52:53;2.57;;;2.10;;
2850;SDS011;1433;49.976;8.342;2023-04-24T12:55:22;2.10;;;1.90;;
2850;SDS011;1433;49.976;8.342;2023-04-24T12:57:48;2.27;;;1.80;;
2850;SDS011;1433;49.976;8.342;2023-04-24T13:00:15;2.40;;;2.20;;
2850;SDS011;1433;49.976;8.342;2023-04-24T13:02:42;2.60;;;2.40;;
2850;SDS011;1433;49.976;8.342;2023-04-24T13:05:08;4.30;;;2.37;;
2850;SDS011;1433;49.976;8.342;2023-04-24T13:07:34;3.30;;;2.03;;
2850;SDS011;1433;49.976;8.342;2023-04-24T13:10:01;2.80;;;2.27;;
2850;SDS011;1433;49.976;8.342;2023-04-24T13:12:27;2.60;;;2.20;;
2850;SDS011;1433;49.976;8.342;2023-04-24T13:14:55;2.70;;;2.50;;
2850;SDS011;1433;49.976;8.342;2023-04-24T13:17:22;3.73;;;2.23;;
2850;SDS011;1433;49.976;8.342;2023-04-24T13:19:49;2.20;;;1.93;;
2850;SDS011;1433;49.976;8.342;2023-04-24T13:22:17;4.20;;;2.40;;
2850;SDS011;1433;49.976;8.342;2023-04-24T13:24:47;6.53;;;2.97;;
2850;SDS011;1433;49.976;8.342;2023-04-24T13:27:17;3.10;;;2.20;;
2850;SDS011;1433;49.976;8.342;2023-04-24T13:29:44;2.20;;;2.00;;
2850;SDS011;1433;49.976;8.342;2023-04-24T13:32:13;3.73;;;2.40;;
2850;SDS011;1433;49.976;8.342;2023-04-24T13:34:40;2.50;;;2.30;;
2850;SDS011;1433;49.976;8.342;2023-04-24T13:37:06;2.33;;;2.13;;
2850;SDS011;1433;49.976;8.342;2023-04-24T13:39:33;3.57;;;2.60;;
2850;SDS011;1433;49.976;8.342;2023-04-24T13:42:02;2.40;;;2.20;;
2850;SDS011;1433;49.976;8.342;2023-04-24T13:44:28;2.77;;;2.57;;
2850;SDS011;1433;49.976;8.342;2023-04-24T13:46:55;2.70;;;2.50;;
2850;SDS011;1433;49.976;8.342;2023-04-24T13:49:23;2.90;;;2.40;;
2850;SDS011;1433;49.976;8.342;2023-04-24T13:51:51;2.37;;;2.20;;
2850;SDS011;1433;49.976;8.342;2023-04-24T13:54:18;5.10;;;2.70;;
2850;SDS011;1433;49.976;8.342;2023-04-24T13:56:44;2.40;;;2.20;;
2850;SDS011;1433;49.976;8.342;2023-04-24T13:59:11;3.07;;;2.77;;
2850;SDS011;1433;49.976;8.342;2023-04-24T14:01:38;3.00;;;2.27;;
2850;SDS011;1433;49.976;8.342;2023-04-24T14:04:04;5.83;;;3.00;;
2850;SDS011;1433;49.976;8.342;2023-04-24T14:06:30;2.63;;;2.30;;
2850;SDS011;1433;49.976;8.342;2023-04-24T14:08:57;4.17;;;2.13;;
2850;SDS011;1433;49.976;8.342;2023-04-24T14:11:23;4.77;;;2.63;;
2850;SDS011;1433;49.976;8.342;2023-04-24T14:13:49;3.53;;;2.60;;
2850;SDS011;1433;49.976;8.342;2023-04-24T14:16:16;2.90;;;2.67;;
2850;SDS011;1433;49.976;8.342;2023-04-24T14:18:42;2.60;;;2.40;;
2850;SDS011;1433;49.976;8.342;2023-04-24T14:21:08;2.70;;;2.00;;
2850;SDS011;1433;49.976;8.342;2023-04-24T14:23:34;3.50;;;2.17;;
2850;SDS011;1433;49.976;8.342;2023-04-24T14:26:01;4.37;;;1.90;;
2850;SDS011;1433;49.976;8.342;2023-04-24T14:28:27;2.17;;;1.97;;
2850;SDS011;1433;49.976;8.342;2023-04-24T14:30:54;2.40;;;2.20;;
2850;SDS011;1433;49.976;8.342;2023-04-24T14:33:20;2.13;;;1.93;;
2850;SDS011;1433;49.976;8.342;2023-04-24T14:35:47;4.10;;;3.17;;
2850;SDS011;1433;49.976;8.342;2023-04-24T14:38:14;2.23;;;2.03;;
2850;SDS011;1433;49.976;8.342;2023-04-24T14:40:41;2.70;;;2.50;;
2850;SDS011;1433;49.976;8.342;2023-04-24T14:43:07;3.40;;;2.70;;
2850;SDS011;1433;49.976;8.342;2023-04-24T14:45:33;2.83;;;2.43;;
2850;SDS011;1433;49.976;8.342;2023-04-24T14:47:59;3.80;;;3.10;;
2850;SDS011;1433;49.976;8.342;2023-04-24T14:50:26;2.00;;;1.80;;
2850;SDS011;1433;49.976;8.342;2023-04-24T14:52:55;2.73;;;2.20;;
2850;SDS011;1433;49.976;8.342;2023-04-24T14:55:25;2.23;;;2.03;;
2850;SDS011;1433;49.976;8.342;2023-04-24T14:57:52;5.83;;;2.03;;
2850;SDS011;1433;49.976;8.342;2023-04-24T15:00:19;1.70;;;1.60;;
2850;SDS011;1433;49.976;8.342;2023-04-24T15:02:46;2.70;;;2.50;;
2850;SDS011;1433;49.976;8.342;2023-04-24T15:05:12;2.20;;;2.10;;
2850;SDS011;1433;49.976;8.342;2023-04-24T15:07:38;6.00;;;2.43;;
2850;SDS011;1433;49.976;8.342;2023-04-24T15:10:05;5.60;;;2.60;;
2850;SDS011;1433;49.976;8.342;2023-04-24T15:12:32;5.03;;;2.33;;
2850;SDS011;1433;49.976;8.342;2023-04-24T15:14:59;3.40;;;2.40;;
2850;SDS011;1433;49.976;8.342;2023-04-24T15:17:25;4.00;;;2.00;;
2850;SDS011;1433;49.976;8.342;2023-04-24T15:19:52;2.40;;;2.20;;
2850;SDS011;1433;49.976;8.342;2023-04-24T15:22:27;3.03;;;2.53;;
2850;SDS011;1433;49.976;8.342;2023-04-24T15:24:53;2.40;;;2.20;;
2850;SDS011;1433;49.976;8.342;2023-04-24T15:27:22;2.93;;;2.60;;
2850;SDS011;1433;49.976;8.342;2023-04-24T15:29:53;2.10;;;1.90;;
2850;SDS011;1433;49.976;8.342;2023-04-24T15:32:20;2.63;;;2.40;;